Time;durP1;ratioP1;P1;durP2;ratioP2;P2;SDS_P1;SDS_P2;PMS_P1;PMS_P2;Temp;Humidity;BMP_temperature;BMP_pressure;BME280_temperature;BME280_humidity;BME280_pressure;Samples;Min_cycle;Max_cycle;Signal;HPM_P1;HPM_P2
2021/08/28 00:01:54;;;;;;;7.57;6.93;;;14.90;99.90;;;;;;5057166;28;20243;-59
2021/08/28 00:04:20;;;;;;;7.40;6.70;;;15.00;99.90;;;;;;5050378;28;20184;-57
2021/08/28 00:06:46;;;;;;;7.90;7.20;;;15.00;99.90;;;;;;5060136;28;20188;-58
2021/08/28 00:09:11;;;;;;;6.80;6.20;;;14.90;99.90;;;;;;5050759;28;20626;-59
2021/08/28 00:11:37;;;;;;;7.70;6.60;;;14.90;99.90;;;;;;5057645;28;20466;-59
2021/08/28 00:14:02;;;;;;;7.30;6.60;;;14.90;99.90;;;;;;5048149;28;20227;-57
2021/08/28 00:16:28;;;;;;;8.50;7.60;;;15.00;99.90;;;;;;5050776;28;20196;-58
2021/08/28 00:18:53;;;;;;;8.13;7.33;;;15.00;99.90;;;;;;5050804;28;20195;-56
2021/08/28 00:21:19;;;;;;;9.00;8.10;;;15.10;99.90;;;;;;5050191;28;20606;-58
2021/08/28 00:23:44;;;;;;;7.13;6.07;;;15.00;99.90;;;;;;5060018;28;20185;-57
2021/08/28 00:26:10;;;;;;;7.87;7.27;;;15.00;99.90;;;;;;5050523;28;20757;-59
2021/08/28 00:28:35;;;;;;;7.13;6.53;;;15.10;99.90;;;;;;5049208;28;20187;-58
2021/08/28 00:31:01;;;;;;;7.53;6.73;;;15.00;99.90;;;;;;5049624;28;20234;-59
2021/08/28 00:33:27;;;;;;;7.13;6.53;;;15.10;99.90;;;;;;5047654;28;20299;-57
2021/08/28 00:35:52;;;;;;;6.97;6.37;;;15.20;99.90;;;;;;5049604;28;20195;-57
2021/08/28 00:38:18;;;;;;;7.93;7.33;;;15.10;99.90;;;;;;5050425;28;20185;-56
2021/08/28 00:40:43;;;;;;;7.80;7.10;;;15.10;99.90;;;;;;5048983;28;20216;-57
2021/08/28 00:43:09;;;;;;;7.67;6.90;;;15.10;99.90;;;;;;5049983;28;20199;-59
2021/08/28 00:45:35;;;;;;;7.43;6.83;;;15.00;99.90;;;;;;5049975;28;20181;-58
2021/08/28 00:48:03;;;;;;;7.77;7.07;;;15.10;99.90;;;;;;5047230;28;20660;-57
2021/08/28 00:50:29;;;;;;;8.73;7.43;;;15.10;99.90;;;;;;5049435;28;20491;-57
2021/08/28 00:52:55;;;;;;;10.00;9.00;;;15.20;99.90;;;;;;5049413;28;20413;-57
2021/08/28 00:55:27;;;;;;;8.33;7.63;;;15.20;99.90;;;;;;5054127;28;20430;-58
2021/08/28 00:58:02;;;;;;;6.97;6.37;;;15.20;99.90;;;;;;5047467;28;20188;-57
2021/08/28 01:00:28;;;;;;;9.00;8.10;;;15.10;99.90;;;;;;5047569;28;20414;-58
2021/08/28 01:02:56;;;;;;;8.57;7.77;;;15.20;99.90;;;;;;5049976;28;20421;-58
2021/08/28 01:05:28;;;;;;;7.83;7.10;;;15.10;99.90;;;;;;5049292;28;20447;-57
2021/08/28 01:08:12;;;;;;;7.00;6.40;;;15.10;99.90;;;;;;5048630;28;20453;-58
2021/08/28 01:10:41;;;;;;;7.77;7.07;;;15.20;99.90;;;;;;5053770;28;20408;-57
2021/08/28 01:13:14;;;;;;;6.87;6.23;;;15.00;99.90;;;;;;5049904;28;20587;-57
2021/08/28 01:15:40;;;;;;;7.80;6.97;;;15.10;99.90;;;;;;5049948;28;20439;-58
2021/08/28 01:18:11;;;;;;;12.00;7.77;;;15.20;99.90;;;;;;5053833;28;20503;-58
2021/08/28 01:20:58;;;;;;;6.93;6.33;;;15.10;99.90;;;;;;5054375;28;20470;-59
2021/08/28 01:23:27;;;;;;;9.60;7.63;;;15.10;99.90;;;;;;5049044;28;20802;-58
2021/08/28 01:25:54;;;;;;;8.57;7.77;;;15.10;99.90;;;;;;5062713;28;20443;-57
2021/08/28 01:28:21;;;;;;;7.30;6.63;;;15.00;99.90;;;;;;5049674;28;20409;-59
2021/08/28 01:30:47;;;;;;;7.97;7.23;;;15.10;99.90;;;;;;5047156;28;20429;-59
2021/08/28 01:33:13;;;;;;;8.07;7.37;;;15.10;99.90;;;;;;5048938;28;20473;-59
2021/08/28 01:35:43;;;;;;;9.10;8.30;;;15.10;99.90;;;;;;5048882;28;20561;-58
2021/08/28 01:38:11;;;;;;;8.33;7.53;;;15.10;99.90;;;;;;5047924;28;20808;-58
2021/08/28 01:40:38;;;;;;;9.40;8.50;;;15.10;99.90;;;;;;5049159;28;20488;-57
2021/08/28 01:43:05;;;;;;;7.70;7.10;;;15.10;99.90;;;;;;5053270;28;20516;-57
2021/08/28 01:45:32;;;;;;;8.40;7.60;;;15.10;99.90;;;;;;5045484;28;20961;-59
2021/08/28 01:47:57;;;;;;;8.50;7.80;;;15.10;99.90;;;;;;5049615;28;20496;-59
2021/08/28 01:50:24;;;;;;;10.50;9.50;;;15.20;99.90;;;;;;5049561;28;20538;-58
2021/08/28 01:52:50;;;;;;;9.43;7.77;;;15.20;99.90;;;;;;5049322;28;20550;-57
2021/08/28 01:55:17;;;;;;;8.47;7.77;;;15.20;99.90;;;;;;5049410;28;20906;-58
2021/08/28 01:57:43;;;;;;;8.83;7.97;;;15.20;99.90;;;;;;5048065;28;20429;-56
2021/08/28 02:00:09;;;;;;;8.50;7.70;;;15.20;99.90;;;;;;5047289;28;20480;-59
2021/08/28 02:02:35;;;;;;;7.53;6.80;;;15.30;99.90;;;;;;5061871;28;20479;-57
2021/08/28 02:05:02;;;;;;;8.03;6.33;;;15.40;99.90;;;;;;5049188;28;20424;-59
2021/08/28 02:07:46;;;;;;;7.80;7.10;;;15.30;99.90;;;;;;5053449;28;20188;-59
2021/08/28 02:10:16;;;;;;;8.27;7.57;;;15.20;99.90;;;;;;5052655;28;20529;-58
2021/08/28 02:12:44;;;;;;;8.33;7.63;;;15.20;99.90;;;;;;5053136;28;20417;-57
2021/08/28 02:15:21;;;;;;;7.90;7.20;;;15.10;99.90;;;;;;5050089;28;20516;-58
2021/08/28 02:18:13;;;;;;;6.83;6.23;;;15.10;99.90;;;;;;5053025;28;20531;-58
2021/08/28 02:20:43;;;;;;;8.50;6.67;;;15.10;99.90;;;;;;5049355;28;20457;-58
2021/08/28 02:23:13;;;;;;;7.87;7.00;;;15.10;99.90;;;;;;5051374;28;20405;-59
2021/08/28 02:26:02;;;;;;;8.20;7.50;;;15.10;99.90;;;;;;5051399;28;20474;-59
2021/08/28 02:28:34;;;;;;;6.83;6.07;;;15.00;99.90;;;;;;5051092;28;20447;-58
2021/08/28 02:31:02;;;;;;;6.33;5.83;;;15.00;99.90;;;;;;5050905;28;20443;-57
2021/08/28 02:33:29;;;;;;;6.80;6.20;;;15.00;99.90;;;;;;5050704;28;22392;-57
2021/08/28 02:35:56;;;;;;;6.60;6.00;;;15.00;99.90;;;;;;5051924;28;20474;-57
2021/08/28 02:38:23;;;;;;;5.93;5.43;;;15.10;99.90;;;;;;5051695;28;20425;-57
2021/08/28 02:40:50;;;;;;;5.30;4.80;;;15.00;99.90;;;;;;5052537;28;20768;-58
2021/08/28 02:43:16;;;;;;;5.20;4.80;;;14.80;99.90;;;;;;5051787;28;20439;-57
2021/08/28 02:45:43;;;;;;;6.33;5.53;;;14.80;99.90;;;;;;5052702;28;20919;-57
2021/08/28 02:48:10;;;;;;;5.53;5.13;;;14.80;99.90;;;;;;5052365;28;20512;-57
2021/08/28 02:50:39;;;;;;;6.37;5.77;;;14.80;99.90;;;;;;5051664;28;20413;-57
2021/08/28 02:53:07;;;;;;;6.80;6.20;;;14.90;99.90;;;;;;5049463;28;20422;-58
2021/08/28 02:55:34;;;;;;;5.40;5.00;;;14.90;99.90;;;;;;5052308;28;20413;-59
2021/08/28 02:58:01;;;;;;;5.70;5.30;;;14.90;99.90;;;;;;5052392;28;20461;-58
2021/08/28 03:00:27;;;;;;;6.83;6.23;;;14.90;99.90;;;;;;5049262;28;20421;-59
2021/08/28 03:02:53;;;;;;;7.73;7.03;;;14.90;99.90;;;;;;5050557;28;20432;-58
2021/08/28 03:05:19;;;;;;;6.60;6.00;;;14.80;99.90;;;;;;5051133;28;20245;-58
2021/08/28 03:07:45;;;;;;;6.90;6.30;;;14.80;99.90;;;;;;5051776;28;20414;-59
2021/08/28 03:10:13;;;;;;;6.70;6.20;;;14.80;99.90;;;;;;5050526;28;20413;-59
2021/08/28 03:12:39;;;;;;;7.67;6.97;;;14.80;99.90;;;;;;5049019;28;20923;-58
2021/08/28 03:15:06;;;;;;;6.97;6.37;;;14.90;99.90;;;;;;5051762;28;20417;-58
2021/08/28 03:17:32;;;;;;;6.87;6.27;;;14.90;99.90;;;;;;5057324;28;20491;-57
2021/08/28 03:19:58;;;;;;;7.37;6.67;;;14.80;99.90;;;;;;5052037;28;20859;-58
2021/08/28 03:22:24;;;;;;;6.27;5.80;;;14.80;99.90;;;;;;5049535;28;20200;-58
2021/08/28 03:24:53;;;;;;;6.20;5.70;;;14.80;99.90;;;;;;5050353;28;20550;-57
2021/08/28 03:27:20;;;;;;;6.67;6.10;;;14.80;99.90;;;;;;5051446;28;20431;-59
2021/08/28 03:29:47;;;;;;;6.40;5.90;;;14.80;99.90;;;;;;5048129;28;20482;-58
2021/08/28 03:32:15;;;;;;;7.10;6.50;;;14.80;99.90;;;;;;5050851;28;20425;-58
2021/08/28 03:34:41;;;;;;;8.20;7.40;;;14.90;99.90;;;;;;5049763;28;20453;-59
2021/08/28 03:37:07;;;;;;;6.93;6.40;;;15.00;99.90;;;;;;5051458;28;20436;-57
2021/08/28 03:39:33;;;;;;;7.07;6.37;;;15.00;99.90;;;;;;5054850;28;20468;-61
2021/08/28 03:41:58;;;;;;;7.47;6.87;;;15.00;99.90;;;;;;5050254;28;20522;-57
2021/08/28 03:44:24;;;;;;;7.20;6.53;;;15.00;99.90;;;;;;5051334;28;20579;-59
2021/08/28 03:46:50;;;;;;;7.63;7.03;;;15.00;99.90;;;;;;5047180;28;20196;-60
2021/08/28 03:49:16;;;;;;;7.97;7.20;;;15.00;99.90;;;;;;5051192;28;20204;-58
2021/08/28 03:51:42;;;;;;;7.70;7.00;;;14.90;99.90;;;;;;5050926;28;20486;-59
2021/08/28 03:54:08;;;;;;;6.80;6.20;;;15.00;99.90;;;;;;5050204;28;20196;-59
2021/08/28 03:56:34;;;;;;;7.13;6.47;;;14.90;99.90;;;;;;5050220;28;20933;-58
2021/08/28 03:59:00;;;;;;;7.43;6.83;;;15.00;99.90;;;;;;5050626;28;20443;-58
2021/08/28 04:01:25;;;;;;;8.10;7.50;;;15.00;99.90;;;;;;5049727;28;20524;-57
2021/08/28 04:03:52;;;;;;;8.73;7.70;;;15.10;99.90;;;;;;5048964;28;20196;-58
2021/08/28 04:06:17;;;;;;;7.53;6.93;;;14.90;99.90;;;;;;5056431;28;20188;-59
2021/08/28 04:08:47;;;;;;;7.00;6.40;;;14.90;99.90;;;;;;5049383;28;20485;-57
2021/08/28 04:11:13;;;;;;;7.67;6.97;;;14.90;99.90;;;;;;5050397;28;20177;-57
2021/08/28 04:13:39;;;;;;;7.83;7.13;;;15.00;99.90;;;;;;5050705;28;20462;-57
2021/08/28 04:16:05;;;;;;;8.07;7.30;;;15.10;99.90;;;;;;5050796;28;20451;-59
2021/08/28 04:18:30;;;;;;;7.73;6.93;;;15.00;99.90;;;;;;5050467;28;20193;-59
2021/08/28 04:20:56;;;;;;;8.67;7.87;;;15.10;99.90;;;;;;5048525;28;20212;-56
2021/08/28 04:23:21;;;;;;;8.50;7.80;;;15.10;99.90;;;;;;5049141;28;20242;-57
2021/08/28 04:25:47;;;;;;;8.33;7.57;;;15.10;99.90;;;;;;5048808;28;20650;-59
2021/08/28 04:28:12;;;;;;;7.63;6.90;;;15.10;99.90;;;;;;5047334;28;20618;-58
2021/08/28 04:30:38;;;;;;;7.37;6.77;;;15.00;99.90;;;;;;5049208;28;20246;-60
2021/08/28 04:33:04;;;;;;;7.53;6.93;;;15.00;99.90;;;;;;5051694;28;20185;-59
2021/08/28 04:35:30;;;;;;;7.67;6.87;;;15.00;99.90;;;;;;5058190;28;20208;-58
2021/08/28 04:37:55;;;;;;;7.30;6.60;;;15.00;99.90;;;;;;5049411;28;20480;-60
2021/08/28 04:40:21;;;;;;;7.17;6.50;;;15.00;99.90;;;;;;5050782;28;20216;-58
2021/08/28 04:42:46;;;;;;;7.90;7.10;;;15.00;99.90;;;;;;5049162;28;20652;-57
2021/08/28 04:45:12;;;;;;;7.33;6.73;;;15.10;99.90;;;;;;5047655;28;20193;-58
2021/08/28 04:47:38;;;;;;;7.43;6.70;;;15.10;99.90;;;;;;5050230;28;20184;-59
2021/08/28 04:50:04;;;;;;;7.60;6.93;;;15.10;99.90;;;;;;5060505;28;20439;-58
2021/08/28 04:52:29;;;;;;;7.60;7.00;;;15.20;99.90;;;;;;5049899;28;20194;-59
2021/08/28 04:54:55;;;;;;;10.10;7.07;;;15.20;99.90;;;;;;5049773;28;20739;-57
2021/08/28 04:57:20;;;;;;;7.87;7.17;;;15.30;99.90;;;;;;5052614;28;20654;-59
2021/08/28 04:59:46;;;;;;;8.80;8.00;;;15.30;99.90;;;;;;5056181;28;20189;-59
2021/08/28 05:02:11;;;;;;;9.70;8.63;;;15.20;99.90;;;;;;5043378;28;20397;-59
2021/08/28 05:04:37;;;;;;;9.30;8.40;;;15.20;99.90;;;;;;5047898;28;20195;-58
2021/08/28 05:07:03;;;;;;;10.07;9.07;;;15.20;99.90;;;;;;5049992;28;20192;-58
2021/08/28 05:09:28;;;;;;;9.40;8.50;;;15.20;99.90;;;;;;5048910;28;20180;-58
2021/08/28 05:11:54;;;;;;;8.80;8.00;;;15.20;99.90;;;;;;5049828;28;20228;-60
2021/08/28 05:14:19;;;;;;;9.03;8.23;;;15.20;99.90;;;;;;5049776;28;20184;-58
2021/08/28 05:16:45;;;;;;;10.37;9.37;;;15.20;99.90;;;;;;5049744;28;20181;-59
2021/08/28 05:19:10;;;;;;;10.47;9.10;;;15.20;99.90;;;;;;5046079;28;20190;-60
2021/08/28 05:21:36;;;;;;;10.47;9.47;;;15.30;99.90;;;;;;5049064;28;20283;-58
2021/08/28 05:24:02;;;;;;;9.73;8.83;;;15.30;99.90;;;;;;5050310;28;20200;-57
2021/08/28 05:26:27;;;;;;;11.00;9.90;;;15.50;99.90;;;;;;5049522;28;20195;-58
2021/08/28 05:28:53;;;;;;;9.47;8.47;;;15.50;99.90;;;;;;5049782;28;20208;-59
2021/08/28 05:31:18;;;;;;;10.70;9.53;;;15.50;99.20;;;;;;5044947;28;20196;-58
2021/08/28 05:33:44;;;;;;;39.10;32.50;;;15.50;99.90;;;;;;5049605;28;20185;-58
2021/08/28 05:36:09;;;;;;;17.70;15.80;;;15.60;96.50;;;;;;5049935;28;20286;-58
2021/08/28 05:38:35;;;;;;;11.17;9.47;;;15.60;96.80;;;;;;5052406;28;20534;-57
2021/08/28 05:41:00;;;;;;;10.57;9.47;;;15.70;94.20;;;;;;5053533;28;20554;-58
2021/08/28 05:43:26;;;;;;;11.10;9.40;;;15.70;81.30;;;;;;5052805;28;20630;-58
2021/08/28 05:45:52;;;;;;;10.70;9.60;;;15.80;74.70;;;;;;5053550;28;20184;-58
2021/08/28 05:48:18;;;;;;;10.60;9.50;;;15.80;68.40;;;;;;5053500;28;20185;-58
2021/08/28 05:50:44;;;;;;;12.90;9.80;;;15.90;55.80;;;;;;5049715;28;20274;-58
2021/08/28 05:53:09;;;;;;;10.60;9.50;;;15.90;49.60;;;;;;5053339;28;20558;-57
2021/08/28 05:55:35;;;;;;;10.53;9.23;;;16.00;39.30;;;;;;5051528;28;20176;-58
2021/08/28 05:58:00;;;;;;;9.97;9.03;;;16.00;12.50;;;;;;5051122;28;20203;-57
2021/08/28 06:00:26;;;;;;;10.77;9.67;;;16.10;24.20;;;;;;5050647;28;20198;-59
2021/08/28 06:02:51;;;;;;;9.97;8.93;;;16.20;24.30;;;;;;5052955;28;20293;-57
2021/08/28 06:05:17;;;;;;;9.13;8.23;;;16.40;21.20;;;;;;5051875;28;20238;-57
2021/08/28 06:07:42;;;;;;;11.93;9.10;;;16.50;11.80;;;;;;5052976;28;20193;-58
2021/08/28 06:10:09;;;;;;;10.00;9.00;;;16.60;1.00;;;;;;5051523;28;20708;-58
2021/08/28 06:12:36;;;;;;;9.47;8.47;;;16.50;1.00;;;;;;5047986;28;20185;-58
2021/08/28 06:15:05;;;;;;;9.90;9.00;;;16.40;1.00;;;;;;5051250;28;20447;-58
2021/08/28 06:17:31;;;;;;;9.77;8.80;;;16.50;1.00;;;;;;5058341;28;20497;-57
2021/08/28 06:19:56;;;;;;;9.77;8.63;;;16.60;1.00;;;;;;5061237;28;20807;-59
2021/08/28 06:22:22;;;;;;;9.43;8.53;;;16.90;1.00;;;;;;5052623;28;20455;-58
2021/08/28 06:24:47;;;;;;;10.70;8.80;;;17.10;1.00;;;;;;5051903;28;20185;-59
2021/08/28 06:27:13;;;;;;;10.40;9.40;;;17.00;1.00;;;;;;5052572;28;20185;-58
2021/08/28 06:29:38;;;;;;;9.17;8.23;;;17.00;1.00;;;;;;5052403;28;20235;-59
2021/08/28 06:32:04;;;;;;;10.67;9.53;;;17.00;1.00;;;;;;5050900;28;20223;-57
2021/08/28 06:34:30;;;;;;;10.47;9.47;;;17.20;1.00;;;;;;5050426;28;20216;-58
2021/08/28 06:36:56;;;;;;;10.73;9.63;;;17.10;1.00;;;;;;5052019;28;20440;-58
2021/08/28 06:39:21;;;;;;;10.07;9.07;;;17.00;1.00;;;;;;5050626;28;20180;-59
2021/08/28 06:41:47;;;;;;;10.87;9.83;;;17.10;1.00;;;;;;5052137;28;20210;-58
2021/08/28 06:44:12;;;;;;;10.20;9.20;;;17.00;1.00;;;;;;5050461;28;20196;-58
2021/08/28 06:46:38;;;;;;;9.70;7.90;;;17.00;1.00;;;;;;5049623;28;20192;-58
2021/08/28 06:49:03;;;;;;;9.93;8.47;;;16.80;1.00;;;;;;5051060;28;20193;-59
2021/08/28 06:51:29;;;;;;;8.47;7.70;;;16.70;1.00;;;;;;5052111;28;20200;-58
2021/08/28 06:53:55;;;;;;;8.87;8.03;;;16.60;1.00;;;;;;5051679;28;20195;-58
2021/08/28 06:56:20;;;;;;;8.87;8.07;;;16.60;1.00;;;;;;5051878;28;20189;-57
2021/08/28 06:58:46;;;;;;;9.03;8.13;;;16.70;1.00;;;;;;5051772;28;20196;-58
2021/08/28 07:01:11;;;;;;;10.40;7.50;;;16.80;1.00;;;;;;5051354;28;20219;-59
2021/08/28 07:03:37;;;;;;;8.57;7.77;;;16.60;1.00;;;;;;5051774;28;20185;-59
2021/08/28 07:06:03;;;;;;;7.83;7.10;;;16.50;1.00;;;;;;5052708;28;20185;-57
2021/08/28 07:08:28;;;;;;;8.37;7.50;;;16.70;1.00;;;;;;5051945;28;20231;-58
2021/08/28 07:10:54;;;;;;;8.10;7.40;;;16.60;1.00;;;;;;5051532;28;20188;-58
2021/08/28 07:13:20;;;;;;;10.40;7.60;;;16.60;1.00;;;;;;5051629;28;20265;-59
2021/08/28 07:15:45;;;;;;;7.50;6.83;;;16.60;1.00;;;;;;5050712;28;20196;-61
2021/08/28 07:18:11;;;;;;;7.93;7.23;;;16.60;1.00;;;;;;5051482;28;20184;-58
2021/08/28 07:20:38;;;;;;;8.00;7.30;;;16.60;1.00;;;;;;5059663;28;20172;-59
2021/08/28 07:23:04;;;;;;;7.10;6.50;;;16.60;1.00;;;;;;5051824;28;20506;-60
2021/08/28 07:25:29;;;;;;;7.77;6.20;;;16.60;1.00;;;;;;5050670;28;20942;-60
2021/08/28 07:27:55;;;;;;;6.43;5.93;;;16.60;1.00;;;;;;5051481;28;20532;-58
2021/08/28 07:30:21;;;;;;;6.73;6.23;;;16.70;1.00;;;;;;5066003;28;20180;-60
2021/08/28 07:32:47;;;;;;;6.37;5.80;;;16.80;1.00;;;;;;5058844;28;20243;-60
2021/08/28 07:35:12;;;;;;;6.90;6.17;;;16.80;1.00;;;;;;5050067;28;20224;-59
2021/08/28 07:37:38;;;;;;;6.43;5.93;;;16.90;1.00;;;;;;5068020;28;20410;-59
2021/08/28 07:40:05;;;;;;;7.40;6.80;;;16.90;1.00;;;;;;5071965;28;20197;-61
2021/08/28 07:42:31;;;;;;;6.60;6.00;;;17.00;1.00;;;;;;5060102;28;20200;-60
2021/08/28 07:44:57;;;;;;;6.30;5.70;;;17.10;1.00;;;;;;5069848;28;20406;-59
2021/08/28 07:47:23;;;;;;;6.37;5.77;;;16.70;1.00;;;;;;5051364;28;20651;-60
2021/08/28 07:49:48;;;;;;;6.00;5.50;;;16.90;1.00;;;;;;5051393;28;20451;-59
2021/08/28 07:52:17;;;;;;;5.87;5.47;;;16.80;1.00;;;;;;5052559;28;20195;-60
2021/08/28 07:54:44;;;;;;;6.03;5.53;;;16.80;1.00;;;;;;5053811;28;20189;-59
2021/08/28 07:57:10;;;;;;;5.93;5.47;;;16.90;1.00;;;;;;5048764;28;20444;-59
2021/08/28 07:59:35;;;;;;;7.40;6.80;;;17.20;1.00;;;;;;5048430;28;20417;-59
2021/08/28 08:02:01;;;;;;;5.93;5.43;;;17.30;1.00;;;;;;5047207;28;20686;-60
2021/08/28 08:04:26;;;;;;;6.80;6.20;;;17.70;1.00;;;;;;5049153;28;20628;-62
2021/08/28 08:06:52;;;;;;;6.10;5.70;;;18.00;1.00;;;;;;5063462;28;20196;-58
2021/08/28 08:09:17;;;;;;;6.23;5.73;;;18.20;1.00;;;;;;5066174;28;20177;-60
2021/08/28 08:11:43;;;;;;;6.63;6.03;;;18.30;1.00;;;;;;5050990;28;20551;-59
2021/08/28 08:14:09;;;;;;;8.30;7.60;;;18.00;1.00;;;;;;5057999;28;20185;-59
2021/08/28 08:16:34;;;;;;;7.77;7.07;;;17.90;1.00;;;;;;5056858;28;20196;-60
2021/08/28 08:19:00;;;;;;;7.97;7.27;;;17.90;1.00;;;;;;5059116;28;20688;-59
2021/08/28 08:21:25;;;;;;;8.33;7.63;;;18.00;1.00;;;;;;5053619;28;20204;-61
2021/08/28 08:23:51;;;;;;;9.00;8.20;;;;;;;;;;5058850;28;20209;-60
2021/08/28 08:26:17;;;;;;;8.60;7.90;;;18.00;1.00;;;;;;5058232;28;20543;-59
2021/08/28 08:28:42;;;;;;;10.27;9.30;;;18.00;1.00;;;;;;5055681;28;20472;-58
2021/08/28 08:31:08;;;;;;;11.37;9.03;;;17.70;1.00;;;;;;5051057;28;20196;-58
2021/08/28 08:33:33;;;;;;;10.20;9.27;;;17.60;1.00;;;;;;5054832;28;20188;-59
2021/08/28 08:35:59;;;;;;;10.10;9.13;;;17.60;1.00;;;;;;5050482;28;20218;-60
2021/08/28 08:38:25;;;;;;;10.07;9.17;;;17.60;1.00;;;;;;5053279;28;20188;-59
2021/08/28 08:40:50;;;;;;;9.20;8.43;;;17.80;1.00;;;;;;5049891;28;20240;-59
2021/08/28 08:43:17;;;;;;;9.10;8.30;;;18.00;1.00;;;;;;5057220;28;20197;-60
2021/08/28 08:45:45;;;;;;;10.00;9.20;;;18.30;1.00;;;;;;5060486;28;20187;-59
2021/08/28 08:48:12;;;;;;;10.10;9.20;;;18.50;1.00;;;;;;5050419;28;20425;-59
2021/08/28 08:50:38;;;;;;;10.27;9.37;;;18.50;1.00;;;;;;5048974;28;20458;-60
2021/08/28 08:53:05;;;;;;;9.50;8.57;;;18.40;1.00;;;;;;5060441;28;20536;-61
2021/08/28 08:55:32;;;;;;;8.80;8.00;;;18.20;1.00;;;;;;5053554;28;20660;-61
2021/08/28 08:57:59;;;;;;;9.27;8.57;;;18.10;1.00;;;;;;5050631;28;20422;-61
2021/08/28 09:00:25;;;;;;;9.30;8.50;;;17.90;1.00;;;;;;5054839;28;20468;-61
2021/08/28 09:02:50;;;;;;;8.30;7.50;;;17.70;1.00;;;;;;5052618;28;20485;-60
2021/08/28 09:05:16;;;;;;;8.97;7.87;;;17.60;1.00;;;;;;5048427;28;20441;-60
2021/08/28 09:07:42;;;;;;;9.47;8.67;;;17.40;1.00;;;;;;5049127;28;20181;-60
2021/08/28 09:10:08;;;;;;;8.00;7.17;;;17.50;1.00;;;;;;5049376;28;20198;-59
2021/08/28 09:12:38;;;;;;;9.03;8.23;;;17.50;1.00;;;;;;5053535;28;20631;-59
2021/08/28 09:15:07;;;;;;;9.00;8.10;;;17.40;1.00;;;;;;5058872;28;20493;-61
2021/08/28 09:17:33;;;;;;;8.20;7.50;;;17.30;1.00;;;;;;5054311;28;20438;-60
2021/08/28 09:20:00;;;;;;;8.70;7.80;;;17.30;1.00;;;;;;5053137;28;20474;-59
2021/08/28 09:22:33;;;;;;;8.43;7.63;;;17.50;1.00;;;;;;5054712;28;20669;-59
2021/08/28 09:25:01;;;;;;;9.70;8.70;;;17.60;1.00;;;;;;5054277;28;20413;-59
2021/08/28 09:27:41;;;;;;;9.40;8.30;;;17.80;1.00;;;;;;5054321;28;20494;-60
2021/08/28 09:30:19;;;;;;;9.23;8.43;;;17.80;1.00;;;;;;5054321;28;20433;-60
2021/08/28 09:32:46;;;;;;;9.53;8.53;;;18.00;1.00;;;;;;5062298;28;20494;-58
2021/08/28 09:35:12;;;;;;;6.10;5.60;;;18.30;1.00;;;;;;5073867;28;20543;-60
2021/08/28 09:37:38;;;;;;;4.80;4.40;;;18.50;1.00;;;;;;5069593;28;21089;-61
2021/08/28 09:40:05;;;;;;;4.47;4.10;;;19.00;1.00;;;;;;5054148;28;20193;-62
2021/08/28 09:42:31;;;;;;;3.87;3.50;;;19.30;1.00;;;;;;5054379;28;20615;-59
2021/08/28 09:44:56;;;;;;;3.47;3.20;;;19.70;1.00;;;;;;5063395;28;20450;-60
2021/08/28 09:47:25;;;;;;;4.20;3.90;;;20.10;1.00;;;;;;5072956;28;20179;-60
2021/08/28 09:49:53;;;;;;;3.70;3.40;;;20.50;1.00;;;;;;5057730;28;20195;-60
2021/08/28 09:52:24;;;;;;;4.00;3.70;;;20.80;1.00;;;;;;5052954;28;20471;-59
2021/08/28 09:54:51;;;;;;;4.03;3.73;;;21.00;1.00;;;;;;5053588;28;20953;-59
2021/08/28 09:57:17;;;;;;;3.63;3.33;;;20.90;1.00;;;;;;5062279;28;20421;-59
2021/08/28 09:59:43;;;;;;;3.67;3.37;;;21.10;1.00;;;;;;5073801;28;20462;-59
2021/08/28 10:02:11;;;;;;;4.13;3.73;;;21.10;1.00;;;;;;5053940;28;20478;-59
2021/08/28 10:04:56;;;;;;;4.37;4.00;;;20.50;1.00;;;;;;5055356;28;20427;-61
2021/08/28 10:07:27;;;;;;;3.30;3.10;;;19.90;1.00;;;;;;5069002;28;20444;-59
2021/08/28 10:09:57;;;;;;;3.53;3.23;;;19.60;1.00;;;;;;5053778;28;20446;-59
2021/08/28 10:12:24;;;;;;;3.50;3.20;;;19.40;1.00;;;;;;5053649;28;20502;-58
2021/08/28 10:14:52;;;;;;;3.70;3.40;;;19.30;1.00;;;;;;5055033;28;20766;-59
2021/08/28 10:17:19;;;;;;;3.77;3.47;;;19.40;1.00;;;;;;5053358;28;20450;-61
2021/08/28 10:19:48;;;;;;;3.37;3.17;;;19.50;1.00;;;;;;5053473;28;20439;-60
2021/08/28 10:22:16;;;;;;;3.57;3.27;;;19.70;1.00;;;;;;5052139;28;20440;-61
2021/08/28 10:24:44;;;;;;;3.33;3.10;;;19.90;1.00;;;;;;5053186;28;20411;-60
2021/08/28 10:27:11;;;;;;;3.00;2.80;;;20.20;1.00;;;;;;5053491;28;20426;-59
2021/08/28 10:29:37;;;;;;;5.37;3.27;;;20.20;1.00;;;;;;5054298;28;20527;-58
2021/08/28 10:32:04;;;;;;;4.63;2.90;;;20.20;1.00;;;;;;5052855;28;20492;-59
2021/08/28 10:34:30;;;;;;;3.97;3.67;;;20.70;1.00;;;;;;5058046;28;20448;-59
2021/08/28 10:36:55;;;;;;;4.30;3.90;;;20.90;1.00;;;;;;5059754;28;21018;-59
2021/08/28 10:39:21;;;;;;;4.07;3.77;;;20.90;1.00;;;;;;5055984;28;20185;-60
2021/08/28 10:41:47;;;;;;;4.27;3.87;;;20.80;1.00;;;;;;5053449;28;20211;-59
2021/08/28 10:44:13;;;;;;;3.60;3.30;;;21.20;1.00;;;;;;5050962;28;20638;-59
2021/08/28 10:46:41;;;;;;;3.73;3.43;;;21.50;1.00;;;;;;5052392;28;20489;-58
2021/08/28 10:49:11;;;;;;;3.30;3.00;;;21.70;1.00;;;;;;5052891;28;20173;-59
2021/08/28 10:51:40;;;;;;;3.73;3.43;;;22.00;1.00;;;;;;5052759;28;20418;-59
2021/08/28 10:54:07;;;;;;;4.23;3.93;;;22.30;1.00;;;;;;5052549;28;20759;-60
2021/08/28 10:56:51;;;;;;;3.80;3.50;;;22.30;1.00;;;;;;5055032;28;20851;-60
2021/08/28 10:59:30;;;;;;;4.53;4.23;;;22.00;1.00;;;;;;5050839;28;20442;-59
2021/08/28 11:02:11;;;;;;;5.17;4.67;;;22.30;1.00;;;;;;5056068;28;20945;-58
2021/08/28 11:04:39;;;;;;;6.40;5.90;;;21.80;1.00;;;;;;5053912;28;20445;-60
2021/08/28 11:07:27;;;;;;;6.00;5.50;;;21.60;1.00;;;;;;5065522;28;20424;-60
2021/08/28 11:10:09;;;;;;;6.67;6.13;;;21.50;1.00;;;;;;5068296;28;20433;-61
2021/08/28 11:12:42;;;;;;;7.10;6.50;;;21.30;1.00;;;;;;5052112;28;20421;-61
2021/08/28 11:15:37;;;;;;;7.43;6.83;;;21.30;1.00;;;;;;5053880;28;20459;-58
2021/08/28 11:18:08;;;;;;;7.70;7.00;;;21.10;1.00;;;;;;5056884;28;20447;-59
2021/08/28 11:20:40;;;;;;;7.00;6.40;;;21.00;1.00;;;;;;5070195;28;20408;-60
2021/08/28 11:23:08;;;;;;;7.27;6.67;;;20.90;1.00;;;;;;5052139;28;20504;-58
2021/08/28 11:25:36;;;;;;;6.87;6.27;;;20.90;1.00;;;;;;5061296;28;20408;-58
2021/08/28 11:28:05;;;;;;;7.10;6.50;;;21.30;1.00;;;;;;5055837;28;20939;-60
2021/08/28 11:30:46;;;;;;;6.70;6.20;;;21.10;1.00;;;;;;5059891;28;20950;-59
2021/08/28 11:33:30;;;;;;;7.23;6.53;;;20.80;1.00;;;;;;5059905;28;20438;-58
2021/08/28 11:36:00;;;;;;;7.27;6.67;;;20.30;1.00;;;;;;5050340;28;20542;-59
2021/08/28 11:38:34;;;;;;;7.90;7.10;;;19.80;1.00;;;;;;5068708;28;20416;-60
2021/08/28 11:41:02;;;;;;;8.10;7.30;;;19.40;1.00;;;;;;5057960;28;21507;-60
2021/08/28 11:43:42;;;;;;;8.37;7.57;;;19.30;1.00;;;;;;5052147;28;20416;-61
2021/08/28 11:46:10;;;;;;;8.30;7.50;;;19.30;1.00;;;;;;5051873;28;20544;-61
2021/08/28 11:48:38;;;;;;;9.40;8.40;;;19.50;1.00;;;;;;5060157;28;20435;-60
2021/08/28 11:51:07;;;;;;;9.00;7.50;;;19.90;1.00;;;;;;5052665;28;20464;-59
2021/08/28 11:53:35;;;;;;;7.73;7.03;;;20.00;1.00;;;;;;5056520;28;20471;-58
2021/08/28 11:56:06;;;;;;;8.73;7.83;;;20.50;1.00;;;;;;5051859;28;21487;-60
2021/08/28 11:58:32;;;;;;;9.23;8.43;;;20.90;1.00;;;;;;5056270;28;20842;-62
2021/08/28 12:00:58;;;;;;;10.60;7.90;;;21.00;1.00;;;;;;5053529;28;20437;-61
2021/08/28 12:03:23;;;;;;;7.87;7.07;;;20.80;1.00;;;;;;5052223;28;20182;-61
2021/08/28 12:05:53;;;;;;;7.90;7.10;;;20.70;1.00;;;;;;5051154;28;20625;-59
2021/08/28 12:08:19;;;;;;;5.60;5.17;;;20.80;1.00;;;;;;5050902;28;20275;-59
2021/08/28 12:10:45;;;;;;;5.30;4.80;;;20.60;1.00;;;;;;5051426;28;20943;-57
2021/08/28 12:13:11;;;;;;;4.20;3.90;;;20.20;1.00;;;;;;5053261;28;20457;-60
2021/08/28 12:15:40;;;;;;;3.10;2.90;;;19.90;1.00;;;;;;5051531;28;20486;-60
2021/08/28 12:18:05;;;;;;;3.23;2.97;;;19.80;1.00;;;;;;5050723;28;20419;-60
2021/08/28 12:20:33;;;;;;;3.30;3.10;;;19.60;1.00;;;;;;5050892;28;20437;-60
2021/08/28 12:23:01;;;;;;;3.10;2.90;;;19.30;1.00;;;;;;5050857;28;20536;-61
2021/08/28 12:25:28;;;;;;;3.80;3.50;;;19.30;1.00;;;;;;5049025;28;20803;-60
2021/08/28 12:27:54;;;;;;;3.23;3.03;;;19.30;1.00;;;;;;5050836;28;20444;-59
2021/08/28 12:30:22;;;;;;;3.73;3.43;;;19.40;1.00;;;;;;5060305;28;20418;-61
2021/08/28 12:32:48;;;;;;;3.77;3.50;;;19.30;1.00;;;;;;5051096;28;20443;-59
2021/08/28 12:35:14;;;;;;;3.77;3.37;;;19.10;1.00;;;;;;5051971;28;20484;-58
2021/08/28 12:37:40;;;;;;;3.40;3.20;;;18.70;1.00;;;;;;5051444;28;20186;-60
2021/08/28 12:40:13;;;;;;;4.00;3.70;;;18.50;1.00;;;;;;5050543;28;20433;-60
2021/08/28 12:42:41;;;;;;;4.97;4.57;;;18.30;1.00;;;;;;5050654;28;20778;-59
2021/08/28 12:45:09;;;;;;;3.80;3.50;;;18.30;1.00;;;;;;5048836;28;20449;-59
2021/08/28 12:47:40;;;;;;;4.03;3.73;;;18.30;1.00;;;;;;5049657;28;20448;-59
2021/08/28 12:50:09;;;;;;;3.70;3.40;;;18.50;1.00;;;;;;5050182;28;20500;-59
2021/08/28 12:52:47;;;;;;;3.93;3.53;;;18.70;1.00;;;;;;5050534;28;20456;-59